createdAt,value
2019-03-12T00:00:23.868Z,38.49
2019-03-12T00:01:23.688Z,38.54
2019-03-12T00:09:23.854Z,38.54
2019-03-12T00:10:23.969Z,38.54
2019-03-12T00:16:23.926Z,38.51
2019-03-12T00:17:23.677Z,38.52
2019-03-12T00:18:23.957Z,38.58
2019-03-12T00:20:23.665Z,38.54
2019-03-12T00:21:23.740Z,38.53
2019-03-12T00:22:23.915Z,38.52
2019-03-12T00:24:23.746Z,38.54
2019-03-12T00:25:23.686Z,38.55
2019-03-12T00:26:23.746Z,38.58
2019-03-12T00:27:23.796Z,38.59
2019-03-12T00:29:23.739Z,38.61
2019-03-12T00:30:23.797Z,38.56
2019-03-12T00:31:23.710Z,38.59
2019-03-12T00:32:23.743Z,38.56
2019-03-12T00:34:23.653Z,38.61
2019-03-12T00:35:23.763Z,38.62
2019-03-12T00:36:23.783Z,38.6
2019-03-12T00:37:23.650Z,38.63
2019-03-12T00:39:23.694Z,38.64
2019-03-12T00:40:23.722Z,38.65
2019-03-12T00:41:24.013Z,38.59
2019-03-12T00:42:23.671Z,38.63
2019-03-12T00:44:23.597Z,38.58
2019-03-12T00:45:23.752Z,38.59
2019-03-12T00:46:27.307Z,38.61
2019-03-12T00:47:23.855Z,38.63
2019-03-12T00:49:23.750Z,38.65
2019-03-12T00:50:23.582Z,38.62
2019-03-12T00:51:23.737Z,38.63
2019-03-12T00:53:23.714Z,38.63
2019-03-12T00:55:23.827Z,38.61
2019-03-12T00:56:23.661Z,38.61
2019-03-12T00:57:24.220Z,38.62
2019-03-12T00:58:23.912Z,38.65
2019-03-12T01:00:23.851Z,38.66
2019-03-12T01:01:23.660Z,38.66
2019-03-12T01:02:23.814Z,38.64
2019-03-12T01:03:23.826Z,38.6
2019-03-12T01:05:23.747Z,38.63
2019-03-12T01:06:23.926Z,38.69
2019-03-12T01:08:23.764Z,38.64
2019-03-12T01:09:23.732Z,38.63
2019-03-12T01:10:23.731Z,38.7
2019-03-12T01:11:23.795Z,38.63
2019-03-12T01:13:23.765Z,38.63
2019-03-12T01:14:23.670Z,38.67
2019-03-12T01:15:23.664Z,38.61
2019-03-12T01:16:23.784Z,38.67
2019-03-12T01:18:23.719Z,38.69
2019-03-12T01:19:23.853Z,38.68
2019-03-12T01:20:23.666Z,38.64
2019-03-12T01:21:23.707Z,38.69
2019-03-12T01:23:23.647Z,38.65
2019-03-12T01:24:23.733Z,38.65
2019-03-12T01:26:23.702Z,38.63
2019-03-12T01:28:23.709Z,38.7
2019-03-12T01:29:23.729Z,38.7
2019-03-12T01:30:23.881Z,38.7
2019-03-12T01:31:23.605Z,38.71
2019-03-12T01:33:23.632Z,38.72
2019-03-12T01:35:23.823Z,38.69
2019-03-12T01:36:23.732Z,38.74
2019-03-12T01:37:23.683Z,38.7
2019-03-12T01:38:23.855Z,38.7
2019-03-12T01:41:23.675Z,38.72
2019-03-12T01:42:23.700Z,38.71
2019-03-12T01:43:23.841Z,38.71
2019-03-12T01:44:23.610Z,38.67
2019-03-12T01:46:23.559Z,38.7
2019-03-12T01:47:23.658Z,38.72
2019-03-12T01:48:23.797Z,38.74
2019-03-12T01:49:23.801Z,38.73
2019-03-12T01:51:23.830Z,38.72
2019-03-12T01:52:23.648Z,38.76
2019-03-12T01:53:23.704Z,38.75
2019-03-12T01:54:23.801Z,38.73
2019-03-12T01:57:23.588Z,38.71
2019-03-12T01:58:23.774Z,38.74
2019-03-12T01:59:23.745Z,38.7
2019-03-12T02:00:23.596Z,38.73
2019-03-12T02:02:23.610Z,38.7
2019-03-12T02:03:23.899Z,38.74
2019-03-12T02:05:23.661Z,38.75
2019-03-12T02:06:23.786Z,38.77
2019-03-12T02:07:23.859Z,38.77
2019-03-12T02:08:23.652Z,38.76
2019-03-12T02:12:23.660Z,38.76
2019-03-12T02:13:23.610Z,38.78
2019-03-12T02:14:23.759Z,38.79
2019-03-12T02:15:23.594Z,38.77
2019-03-12T02:18:23.691Z,38.75
2019-03-12T02:19:23.761Z,38.79
2019-03-12T02:20:23.564Z,38.73
2019-03-12T02:21:23.690Z,38.74
2019-03-12T02:23:23.601Z,38.75
2019-03-12T02:25:23.649Z,38.77
2019-03-12T02:26:23.628Z,38.76
2019-03-12T02:27:23.717Z,38.75
2019-03-12T02:28:23.798Z,38.79
2019-03-12T02:32:23.742Z,38.81
2019-03-12T02:33:23.580Z,38.76
2019-03-12T02:35:24.101Z,38.79
2019-03-12T02:36:23.722Z,38.8
2019-03-12T02:37:23.774Z,38.81
2019-03-12T02:38:23.806Z,38.78
2019-03-12T02:40:23.813Z,38.81
2019-03-12T02:41:23.628Z,38.78
2019-03-12T02:42:23.762Z,38.78
2019-03-12T02:43:23.778Z,38.78
2019-03-12T02:45:23.927Z,38.75
2019-03-12T02:47:23.731Z,38.74
2019-03-12T02:48:23.700Z,38.79
2019-03-12T02:49:23.601Z,38.74
2019-03-12T02:50:23.677Z,38.78
2019-03-12T02:52:23.594Z,38.78
2019-03-12T02:53:23.731Z,38.78
2019-03-12T02:54:23.734Z,38.8
2019-03-12T02:55:23.743Z,38.77
2019-03-12T02:57:23.840Z,38.79
2019-03-12T02:58:23.730Z,38.77
2019-03-12T03:00:23.723Z,38.75
2019-03-12T03:01:23.784Z,38.79
2019-03-12T03:02:23.825Z,38.79
2019-03-12T03:03:23.591Z,38.78
2019-03-12T03:05:23.857Z,38.75
2019-03-12T03:06:23.612Z,38.68
2019-03-12T03:07:23.948Z,38.76
2019-03-12T03:08:23.863Z,38.78
2019-03-12T03:10:23.723Z,38.72
2019-03-12T03:11:23.537Z,38.79
2019-03-12T03:12:23.651Z,38.85
2019-03-12T03:13:23.714Z,38.78
2019-03-12T03:15:23.749Z,38.77
2019-03-12T03:16:24.941Z,38.78
2019-03-12T03:18:23.710Z,38.73
2019-03-12T03:19:23.652Z,38.75
2019-03-12T03:21:23.828Z,38.78
2019-03-12T03:22:23.699Z,38.77
2019-03-12T03:24:23.498Z,38.75
2019-03-12T03:25:23.637Z,38.82
2019-03-12T03:26:23.729Z,38.78
2019-03-12T03:27:23.873Z,38.82
2019-03-12T03:29:23.761Z,38.79
2019-03-12T03:30:24.112Z,38.77
2019-03-12T03:31:23.759Z,38.77
2019-03-12T03:33:23.737Z,38.83
2019-03-12T03:34:29.095Z,38.8
2019-03-12T03:35:23.827Z,38.76
2019-03-12T03:36:23.681Z,38.79
2019-03-12T03:38:23.541Z,38.7
2019-03-12T03:39:23.608Z,38.76
2019-03-12T03:41:23.594Z,38.79
2019-03-12T03:42:23.765Z,38.77
2019-03-12T03:43:23.733Z,38.79
2019-03-12T03:44:23.603Z,38.8
2019-03-12T03:47:23.627Z,38.82
2019-03-12T03:49:23.712Z,38.78
2019-03-12T03:50:23.953Z,38.78
2019-03-12T03:53:23.740Z,38.77
2019-03-12T03:54:23.596Z,38.82
2019-03-12T03:55:23.706Z,38.83
2019-03-12T03:57:23.583Z,38.77
2019-03-12T03:58:23.794Z,38.79
2019-03-12T03:59:23.846Z,38.76
2019-03-12T04:00:23.785Z,38.77
2019-03-12T04:02:23.594Z,38.79
2019-03-12T04:03:23.658Z,38.72
2019-03-12T04:04:23.685Z,38.77
2019-03-12T04:05:23.554Z,38.81
2019-03-12T04:07:23.788Z,38.78
2019-03-12T04:09:23.780Z,38.79
2019-03-12T04:10:23.739Z,38.75
2019-03-12T04:11:23.665Z,38.82
2019-03-12T04:12:23.991Z,38.78
2019-03-12T04:14:23.735Z,38.74
2019-03-12T04:15:23.881Z,38.77
2019-03-12T04:16:23.706Z,38.81
2019-03-12T04:17:23.797Z,38.83
2019-03-12T04:19:23.720Z,38.78
2019-03-12T04:20:23.723Z,38.77
2019-03-12T04:22:23.754Z,38.81
2019-03-12T04:23:23.598Z,38.76
2019-03-12T04:24:23.694Z,38.78
2019-03-12T04:25:23.774Z,38.82
2019-03-12T04:27:23.661Z,38.85
2019-03-12T04:29:23.669Z,38.77
2019-03-12T04:30:23.737Z,38.8
2019-03-12T04:32:23.703Z,38.8
2019-03-12T04:33:23.745Z,38.74
2019-03-12T04:34:23.641Z,38.89
2019-03-12T04:35:23.768Z,38.9
2019-03-12T04:37:23.622Z,38.93
2019-03-12T04:38:23.737Z,38.95
2019-03-12T04:40:23.719Z,39.01
2019-03-12T04:42:23.690Z,38.99
2019-03-12T04:43:23.688Z,38.9
2019-03-12T04:44:23.644Z,38.94
2019-03-12T04:46:23.953Z,38.8
2019-03-12T04:47:23.697Z,38.85
2019-03-12T04:48:23.785Z,38.85
2019-03-12T04:49:23.539Z,38.81
2019-03-12T04:51:23.877Z,38.79
2019-03-12T04:52:23.604Z,38.8
2019-03-12T04:53:23.600Z,38.77
2019-03-12T04:54:23.774Z,38.79
2019-03-12T04:56:23.881Z,38.78
2019-03-12T04:58:23.796Z,38.76
2019-03-12T04:59:23.727Z,38.76
2019-03-12T05:01:23.709Z,38.77
2019-03-12T05:02:23.723Z,38.78
2019-03-12T05:04:23.927Z,38.79
2019-03-12T05:05:23.635Z,38.78
2019-03-12T05:06:23.826Z,38.8
2019-03-12T05:07:23.779Z,38.78
2019-03-12T05:09:23.742Z,38.78
2019-03-12T05:10:23.726Z,38.79
2019-03-12T05:11:23.765Z,38.8
2019-03-12T05:13:23.624Z,38.81
2019-03-12T05:14:23.697Z,38.83
2019-03-12T05:16:23.586Z,38.8
2019-03-12T05:18:23.699Z,38.76
2019-03-12T05:19:24.067Z,38.82
2019-03-12T05:20:25.587Z,38.82
2019-03-12T05:21:25.902Z,38.8
2019-03-12T05:23:25.541Z,38.76
2019-03-12T05:25:23.463Z,38.8
2019-03-12T05:26:23.776Z,38.8
2019-03-12T05:27:25.246Z,38.78
2019-03-12T05:28:23.734Z,38.81
2019-03-12T05:31:23.686Z,38.79
2019-03-12T05:32:23.677Z,38.75
2019-03-12T05:33:23.966Z,38.82
2019-03-12T05:34:23.723Z,38.72
2019-03-12T05:36:23.564Z,38.74
2019-03-12T05:37:23.743Z,38.76
2019-03-12T05:38:23.631Z,38.73
2019-03-12T05:39:23.566Z,38.72
2019-03-12T05:41:23.644Z,38.72
2019-03-12T05:42:23.782Z,38.7
2019-03-12T05:43:23.749Z,38.72
2019-03-12T05:44:23.726Z,38.68
2019-03-12T05:46:23.505Z,38.73
2019-03-12T05:48:23.909Z,38.73
2019-03-12T05:49:23.605Z,38.71
2019-03-12T05:50:23.653Z,38.71
2019-03-12T05:51:23.895Z,38.7
2019-03-12T05:53:23.863Z,38.71
2019-03-12T05:54:23.677Z,38.69
2019-03-12T05:55:23.622Z,38.71
2019-03-12T05:56:23.828Z,38.67
2019-03-12T05:58:23.644Z,38.67
2019-03-12T05:59:23.567Z,38.68
2019-03-12T06:01:23.713Z,38.65
2019-03-12T06:02:23.824Z,38.66
2019-03-12T06:03:24.208Z,38.67
2019-03-12T06:04:23.790Z,38.64
2019-03-12T06:06:23.809Z,38.78
2019-03-12T06:07:23.640Z,38.9
2019-03-12T06:08:23.795Z,38.93
2019-03-12T06:09:30.647Z,38.96
2019-03-12T06:11:23.687Z,39.21
2019-03-12T06:12:23.790Z,39.23
2019-03-12T06:13:23.563Z,39.29
2019-03-12T06:14:23.662Z,39.19
2019-03-12T06:16:23.838Z,39.49
2019-03-12T06:17:23.738Z,39.36
2019-03-12T06:18:23.584Z,39.08
2019-03-12T06:20:23.778Z,39.2
2019-03-12T06:21:23.597Z,39.42
2019-03-12T06:22:23.783Z,39.44
2019-03-12T06:23:23.565Z,39.26
2019-03-12T06:25:23.733Z,39.16
2019-03-12T06:27:23.802Z,39.45
2019-03-12T06:28:23.522Z,39.76
2019-03-12T06:31:23.589Z,39.74
2019-03-12T06:32:23.773Z,40.03
2019-03-12T06:33:24.577Z,40.38
2019-03-12T06:34:23.613Z,41.33
2019-03-12T06:36:23.649Z,39.96
2019-03-12T06:37:23.641Z,40.07
2019-03-12T06:38:23.698Z,39.84
2019-03-12T06:39:23.659Z,40.17
2019-03-12T06:41:23.611Z,39.67
2019-03-12T06:42:23.595Z,39.79
2019-03-12T06:44:23.733Z,39.42
2019-03-12T06:47:23.875Z,40.13
2019-03-12T06:48:23.486Z,39.83
2019-03-12T06:49:23.645Z,39.93
2019-03-12T06:50:23.866Z,39.4
2019-03-12T06:52:23.636Z,39.74
2019-03-12T06:53:23.796Z,39.35
2019-03-12T06:54:23.651Z,39.38
2019-03-12T06:55:23.736Z,39.25
2019-03-12T06:57:23.603Z,39.38
2019-03-12T07:00:23.812Z,39.92
2019-03-12T07:01:23.579Z,39.56
2019-03-12T07:02:23.820Z,39.5
2019-03-12T07:04:23.560Z,39.31
2019-03-12T07:05:23.793Z,39.47
2019-03-12T07:06:23.529Z,39.97
2019-03-12T07:09:23.601Z,39.84
2019-03-12T07:10:23.849Z,39.6
2019-03-12T07:11:23.620Z,38.23
2019-03-12T07:12:23.597Z,39.32
2019-03-12T07:14:23.647Z,38.42
2019-03-12T07:15:23.763Z,37.64
2019-03-12T07:17:23.765Z,37.58
2019-03-12T07:18:23.815Z,37.97
2019-03-12T07:19:23.695Z,39.74
2019-03-12T07:20:23.606Z,38.96
2019-03-12T07:23:23.588Z,38.6
2019-03-12T07:24:23.529Z,38.51
2019-03-12T07:25:23.699Z,38.53
2019-03-12T07:28:23.496Z,38.59
2019-03-12T07:29:23.878Z,38.85
2019-03-12T07:31:23.945Z,38.75
2019-03-12T07:32:23.801Z,38.94
2019-03-12T07:33:23.678Z,39.11
2019-03-12T07:34:37.057Z,39.3
2019-03-12T07:36:23.696Z,38.82
2019-03-12T07:37:23.437Z,39.04
2019-03-12T07:38:23.639Z,39.07
2019-03-12T07:39:23.569Z,39.08
2019-03-12T07:41:32.926Z,39.06
2019-03-12T07:42:23.666Z,39.07
2019-03-12T07:43:23.723Z,38.99
2019-03-12T07:44:23.715Z,38.83
2019-03-12T07:45:42.450Z,38.82
2019-03-12T07:46:40.674Z,39.07
2019-03-12T07:47:42.317Z,39
2019-03-12T07:48:40.666Z,38.93
2019-03-12T07:49:40.706Z,38.98
2019-03-12T07:50:40.872Z,39
2019-03-12T07:51:40.553Z,38.96
2019-03-12T07:52:40.735Z,38.91
2019-03-12T07:53:40.802Z,38.99
2019-03-12T07:54:40.696Z,39.44
2019-03-12T07:55:40.714Z,39.5
2019-03-12T07:56:40.743Z,39.21
2019-03-12T07:57:40.705Z,39.27
2019-03-12T07:58:40.734Z,39.32
2019-03-12T07:59:40.771Z,38.99
2019-03-12T08:00:40.683Z,39.08
2019-03-12T08:01:40.761Z,39.14
2019-03-12T08:02:40.766Z,38.71
2019-03-12T08:03:40.724Z,37.92
2019-03-12T08:04:43.864Z,38.45
2019-03-12T08:05:40.736Z,38.36
2019-03-12T08:06:40.607Z,38.74
2019-03-12T08:07:40.738Z,38.57
2019-03-12T08:08:40.505Z,38.63
2019-03-12T08:09:40.576Z,38.66
2019-03-12T08:10:40.777Z,38.81
2019-03-12T08:11:40.620Z,38.76
2019-03-12T08:12:40.838Z,38.91
2019-03-12T08:13:40.758Z,38.9
2019-03-12T08:14:40.616Z,38.86
2019-03-12T08:15:40.752Z,38.95
2019-03-12T08:16:40.790Z,38.79
2019-03-12T08:17:40.637Z,38.79
2019-03-12T08:18:40.633Z,38.72
2019-03-12T08:19:40.750Z,38.68
2019-03-12T08:20:40.655Z,39
2019-03-12T08:21:40.662Z,38.88
2019-03-12T08:22:40.796Z,38.34
2019-03-12T08:23:40.800Z,37.88
2019-03-12T08:24:40.774Z,37.98
2019-03-12T08:25:44.151Z,38.01
2019-03-12T08:26:40.563Z,37.95
2019-03-12T08:27:40.602Z,37.99
2019-03-12T08:28:40.903Z,37.98
2019-03-12T08:29:40.512Z,38.18
2019-03-12T08:30:40.635Z,37.56
2019-03-12T08:31:40.742Z,37.69
2019-03-12T08:32:40.578Z,37.7
2019-03-12T08:33:51.148Z,37.72
2019-03-12T08:34:40.633Z,37.75
2019-03-12T08:35:40.801Z,37.8
2019-03-12T08:36:40.606Z,37.93
2019-03-12T08:37:40.619Z,38.05
2019-03-12T08:38:40.810Z,38.19
2019-03-12T08:39:40.571Z,38.23
2019-03-12T08:40:52.894Z,38.26
2019-03-12T08:41:40.675Z,38.3
2019-03-12T08:42:54.970Z,38.33
2019-03-12T08:43:40.653Z,38.32
2019-03-12T08:44:42.679Z,38.31
2019-03-12T08:45:40.595Z,38.3
2019-03-12T08:46:40.705Z,38.33
2019-03-12T08:47:40.761Z,38.3
2019-03-12T08:48:40.509Z,38.31
2019-03-12T08:49:40.730Z,38.36
2019-03-12T08:50:40.764Z,38.34
2019-03-12T08:51:40.666Z,38.34
2019-03-12T08:52:40.763Z,38.34
2019-03-12T08:53:40.825Z,38.34
2019-03-12T08:54:54.613Z,38.32
2019-03-12T08:55:40.889Z,38.34
2019-03-12T08:56:40.606Z,38.35
2019-03-12T08:57:40.755Z,38.29
2019-03-12T08:58:40.845Z,38.28
2019-03-12T08:59:40.667Z,38.37
2019-03-12T09:00:40.656Z,38.32
2019-03-12T09:01:46.592Z,38.35
2019-03-12T09:02:40.874Z,38.36
2019-03-12T09:03:40.709Z,38.33
2019-03-12T09:04:40.699Z,38.31
2019-03-12T09:05:40.828Z,38.32
2019-03-12T09:06:40.674Z,38.31
2019-03-12T09:07:40.781Z,38.29
2019-03-12T09:08:49.629Z,38.35
2019-03-12T09:09:40.750Z,38.32
2019-03-12T09:10:40.761Z,38.34
2019-03-12T09:11:40.557Z,38.38
2019-03-12T09:12:40.701Z,38.3
2019-03-12T09:13:40.811Z,38.35
2019-03-12T09:14:40.550Z,38.35
2019-03-12T09:15:40.734Z,38.3
2019-03-12T09:16:41.049Z,38.22
2019-03-12T09:17:40.644Z,38.23
2019-03-12T09:18:40.754Z,38.2
2019-03-12T09:19:40.753Z,38.15
2019-03-12T09:20:40.700Z,38.11
2019-03-12T09:21:40.741Z,38.11
2019-03-12T09:22:40.824Z,38.14
2019-03-12T09:23:40.570Z,38.13
2019-03-12T09:24:40.657Z,38.06
2019-03-12T09:25:40.810Z,38.04
2019-03-12T09:26:40.688Z,38.05
2019-03-12T09:27:40.664Z,38.15
2019-03-12T09:28:40.799Z,38.11
2019-03-12T09:29:40.605Z,37.95
2019-03-12T09:30:40.674Z,37.99
2019-03-12T09:31:40.518Z,37.83
2019-03-12T09:32:40.607Z,38
2019-03-12T09:33:40.809Z,38.03
2019-03-12T09:34:40.525Z,38.36
2019-03-12T09:35:40.620Z,37.97
2019-03-12T09:36:40.737Z,37.87
2019-03-12T09:37:40.537Z,37.26
2019-03-12T09:38:40.815Z,36.18
2019-03-12T09:39:40.765Z,35.9
2019-03-12T09:40:40.686Z,36.41
2019-03-12T09:41:40.686Z,36.59
2019-03-12T09:42:40.843Z,37.02
2019-03-12T09:43:40.561Z,37.2
2019-03-12T09:44:40.738Z,37.32
2019-03-12T09:45:40.758Z,37.48
2019-03-12T09:46:40.683Z,37.52
2019-03-12T09:47:40.689Z,37.64
2019-03-12T09:48:40.714Z,37.62
2019-03-12T09:49:40.667Z,37.59
2019-03-12T09:50:40.678Z,37.7
2019-03-12T09:51:49.517Z,37.67
2019-03-12T09:52:40.704Z,37.6
2019-03-12T09:53:40.794Z,37.66
2019-03-12T09:54:40.601Z,37.66
2019-03-12T09:55:40.706Z,37.62
2019-03-12T09:56:40.728Z,37.72
2019-03-12T09:57:40.617Z,37.69
2019-03-12T09:58:40.742Z,37.71
2019-03-12T09:59:40.820Z,37.74
2019-03-12T10:00:40.631Z,37.7
2019-03-12T10:01:40.647Z,37.81
2019-03-12T10:02:40.887Z,37.67
2019-03-12T10:03:40.715Z,37.94
2019-03-12T10:04:40.653Z,38.11
2019-03-12T10:05:40.832Z,37.94
2019-03-12T10:06:40.583Z,37.83
2019-03-12T10:07:40.824Z,37.86
2019-03-12T10:08:40.860Z,38.07
2019-03-12T10:09:40.729Z,38.19
2019-03-12T10:10:10.932Z,38.58
2019-03-12T10:11:11.140Z,38.1
2019-03-12T10:12:10.997Z,37.94
2019-03-12T10:13:10.997Z,37.86
2019-03-12T10:14:03.765Z,37.86
2019-03-12T10:15:03.869Z,37.8
2019-03-12T10:16:03.814Z,37.66
2019-03-12T10:17:03.769Z,37.58
2019-03-12T10:18:03.945Z,37.57
2019-03-12T10:19:03.778Z,37.56
2019-03-12T10:20:03.863Z,37.49
2019-03-12T10:21:03.722Z,37.38
2019-03-12T10:22:04.047Z,37.37
2019-03-12T10:23:04.218Z,37.38
2019-03-12T10:24:03.814Z,37.34
2019-03-12T10:25:03.959Z,37.3
2019-03-12T10:26:03.829Z,37.27
2019-03-12T10:27:03.784Z,37.27
2019-03-12T10:28:03.976Z,37.21
2019-03-12T10:29:03.806Z,37.29
2019-03-12T10:30:03.917Z,37.11
2019-03-12T10:31:03.706Z,37.22
2019-03-12T10:32:03.891Z,37.33
2019-03-12T10:33:03.990Z,37.27
2019-03-12T10:34:03.782Z,37.31
2019-03-12T10:35:03.962Z,37.31
2019-03-12T10:36:03.893Z,37.27
2019-03-12T10:37:13.088Z,37.29
2019-03-12T10:38:03.792Z,37.25
2019-03-12T10:39:03.811Z,37.32
2019-03-12T10:40:03.947Z,37.32
2019-03-12T10:41:03.810Z,37.34
2019-03-12T10:42:03.974Z,37.23
2019-03-12T10:43:03.701Z,37.51
2019-03-12T10:44:03.861Z,37.24
2019-03-12T10:45:03.651Z,37.23
2019-03-12T10:46:00.691Z,37.99
2019-03-12T10:47:00.909Z,37.22
2019-03-12T10:48:00.872Z,37.41
2019-03-12T10:49:00.706Z,37.28
2019-03-12T10:50:01.037Z,37.47
2019-03-12T10:51:00.973Z,37.52
2019-03-12T10:52:01.022Z,37.44
2019-03-12T10:53:00.788Z,37.35
2019-03-12T10:54:00.880Z,37.39
2019-03-12T10:55:13.867Z,37.44
2019-03-12T10:56:00.747Z,37.55
2019-03-12T10:57:00.956Z,37.53
2019-03-12T10:58:00.970Z,37.6
2019-03-12T10:59:00.843Z,37.65
2019-03-12T11:00:00.857Z,37.68
2019-03-12T11:01:00.974Z,37.66
2019-03-12T11:02:00.877Z,37.73
2019-03-12T11:03:00.809Z,37.75
2019-03-12T11:04:00.990Z,37.76
2019-03-12T11:05:01.017Z,37.74
2019-03-12T11:06:00.897Z,37.77
2019-03-12T11:07:01.000Z,37.76
2019-03-12T11:08:00.847Z,37.79
2019-03-12T11:09:00.924Z,37.83
2019-03-12T11:10:01.039Z,37.99
2019-03-12T11:11:00.981Z,38.1
2019-03-12T11:12:00.783Z,38.11
2019-03-12T11:13:00.723Z,38.13
2019-03-12T11:14:00.928Z,38.16
2019-03-12T11:15:01.036Z,38.14
2019-03-12T11:16:00.729Z,38.13
2019-03-12T11:17:00.863Z,38.2
2019-03-12T11:18:01.028Z,38.15
2019-03-12T11:19:00.833Z,38.2
2019-03-12T11:20:00.918Z,38.2
2019-03-12T11:21:00.986Z,38.19
2019-03-12T11:22:00.716Z,37.9
2019-03-12T11:23:00.865Z,37.88
2019-03-12T11:24:00.914Z,38.04
2019-03-12T11:25:00.880Z,38
2019-03-12T11:26:00.996Z,38.08
2019-03-12T11:27:01.364Z,38.08
2019-03-12T11:28:01.072Z,38.08
2019-03-12T11:29:00.907Z,38.08
2019-03-12T11:30:00.945Z,38.09
2019-03-12T11:31:00.788Z,38.09
2019-03-12T11:32:01.464Z,38.12
2019-03-12T11:33:00.991Z,38.09
2019-03-12T11:34:00.775Z,38.1
2019-03-12T11:35:00.943Z,38.04
2019-03-12T11:36:09.826Z,38.01
2019-03-12T11:37:00.815Z,38.09
2019-03-12T11:38:00.926Z,38.06
2019-03-12T11:39:00.853Z,38.06
2019-03-12T11:40:02.557Z,38.09
2019-03-12T11:41:01.089Z,38.03
2019-03-12T11:42:01.054Z,38.06
2019-03-12T11:43:01.146Z,38.14
2019-03-12T11:44:01.321Z,37.99
2019-03-12T11:45:02.142Z,38.06
2019-03-12T11:46:01.046Z,38.07
2019-03-12T11:47:00.876Z,38.07
2019-03-12T11:48:01.314Z,38.03
2019-03-12T11:49:01.024Z,38.05
2019-03-12T11:50:01.749Z,38.03
2019-03-12T11:51:00.974Z,38.03
2019-03-12T11:52:00.887Z,38.05
2019-03-12T11:53:01.670Z,38.07
2019-03-12T11:54:00.943Z,38.07
2019-03-12T11:55:01.429Z,38.02
2019-03-12T11:56:00.890Z,38.04
2019-03-12T11:57:01.113Z,38.06
2019-03-12T11:58:00.872Z,38.02
2019-03-12T11:59:00.847Z,38.04
2019-03-12T12:00:02.006Z,38.04
2019-03-12T12:01:01.155Z,38.01
2019-03-12T12:02:00.829Z,38.01
2019-03-12T12:03:00.954Z,38.01
2019-03-12T12:04:01.141Z,37.98
2019-03-12T12:05:00.915Z,38.01
2019-03-12T12:06:00.860Z,38
2019-03-12T12:07:01.079Z,38.02
2019-03-12T12:08:00.894Z,37.97
2019-03-12T12:09:00.967Z,38.01
2019-03-12T12:10:02.310Z,38.03
2019-03-12T12:11:01.224Z,38
2019-03-12T12:12:01.086Z,37.95
2019-03-12T12:13:01.002Z,37.98
2019-03-12T12:14:01.210Z,37.99
2019-03-12T12:15:01.023Z,37.93
2019-03-12T12:16:01.280Z,37.91
2019-03-12T12:17:01.333Z,37.92
2019-03-12T12:18:00.801Z,37.94
2019-03-12T12:19:01.049Z,37.94
2019-03-12T12:20:00.842Z,37.94
2019-03-12T12:21:00.836Z,37.95
2019-03-12T12:22:00.974Z,37.92
2019-03-12T12:23:00.818Z,37.93
2019-03-12T12:24:00.838Z,37.96
2019-03-12T12:25:00.959Z,37.97
2019-03-12T12:26:00.912Z,37.95
2019-03-12T12:27:00.844Z,37.95
2019-03-12T12:28:01.048Z,37.95
2019-03-12T12:29:00.858Z,37.92
2019-03-12T12:30:00.874Z,37.9
2019-03-12T12:31:01.006Z,37.93
2019-03-12T12:32:00.804Z,37.92
2019-03-12T12:33:00.978Z,37.94
2019-03-12T12:34:01.032Z,37.9
2019-03-12T12:35:00.912Z,37.91
2019-03-12T12:36:00.856Z,37.93
2019-03-12T12:37:00.965Z,37.89
2019-03-12T12:38:00.961Z,37.93
2019-03-12T12:39:00.856Z,37.95
2019-03-12T12:40:00.775Z,37.9
2019-03-12T12:41:00.849Z,37.9
2019-03-12T12:42:00.854Z,37.88
2019-03-12T12:43:01.011Z,37.92
2019-03-12T12:44:01.909Z,37.91
2019-03-12T12:45:00.949Z,37.9
2019-03-12T12:46:00.725Z,37.93
2019-03-12T12:47:00.781Z,37.89
2019-03-12T12:48:00.898Z,37.91
2019-03-12T12:49:00.749Z,37.84
2019-03-12T12:50:00.906Z,37.9
2019-03-12T12:51:04.064Z,37.85
2019-03-12T12:52:00.722Z,37.89
2019-03-12T12:53:00.890Z,37.86
2019-03-12T12:54:00.983Z,37.86
2019-03-12T12:55:01.292Z,37.89
2019-03-12T12:56:01.000Z,37.85
2019-03-12T12:57:00.983Z,37.86
2019-03-12T12:58:00.733Z,37.84
2019-03-12T12:59:00.871Z,37.77
2019-03-12T13:00:00.909Z,37.82
2019-03-12T13:01:00.708Z,37.76
2019-03-12T13:02:00.834Z,37.83
2019-03-12T13:03:00.853Z,37.79
2019-03-12T13:04:00.746Z,37.8
2019-03-12T13:05:00.902Z,37.78
2019-03-12T13:06:01.084Z,37.77
2019-03-12T13:07:00.870Z,37.8
2019-03-12T13:08:00.888Z,37.73
2019-03-12T13:09:09.633Z,37.74
2019-03-12T13:10:00.808Z,37.8
2019-03-12T13:11:00.951Z,37.78
2019-03-12T13:12:00.786Z,37.77
2019-03-12T13:13:00.816Z,37.73
2019-03-12T13:14:00.968Z,37.73
2019-03-12T13:15:00.861Z,37.73
2019-03-12T13:16:00.890Z,37.77
2019-03-12T13:17:00.778Z,37.73
2019-03-12T13:18:00.976Z,37.8
2019-03-12T13:19:00.854Z,37.77
2019-03-12T13:20:00.832Z,37.77
2019-03-12T13:21:00.870Z,37.77
2019-03-12T13:22:01.214Z,37.76
2019-03-12T13:23:00.790Z,37.74
2019-03-12T13:24:00.893Z,37.77
2019-03-12T13:25:00.868Z,37.77
2019-03-12T13:26:00.755Z,37.72
2019-03-12T13:27:00.896Z,37.84
2019-03-12T13:28:01.047Z,37.82
2019-03-12T13:29:00.760Z,37.37
2019-03-12T13:30:00.926Z,36.8
2019-03-12T13:31:00.702Z,37.64
2019-03-12T13:32:13.958Z,36.84
2019-03-12T13:33:00.827Z,36.58
2019-03-12T13:34:00.728Z,36.67
2019-03-12T13:35:00.790Z,36.88
2019-03-12T13:36:00.985Z,36.74
2019-03-12T13:37:00.841Z,36.96
2019-03-12T13:38:00.814Z,37.03
2019-03-12T13:39:01.566Z,37.08
2019-03-12T13:40:01.760Z,37.09
2019-03-12T13:41:03.812Z,37.19
2019-03-12T13:42:00.904Z,37.23
2019-03-12T13:43:00.819Z,37.24
2019-03-12T13:44:00.874Z,37.28
2019-03-12T13:45:02.030Z,37.23
2019-03-12T13:46:00.971Z,37.31
2019-03-12T13:47:00.878Z,37.29
2019-03-12T13:48:01.119Z,37.37
2019-03-12T13:49:00.844Z,37.34
2019-03-12T13:50:02.183Z,37.34
2019-03-12T13:51:00.965Z,37.36
2019-03-12T13:52:01.063Z,37.41
2019-03-12T13:53:00.988Z,37.39
2019-03-12T13:54:00.949Z,37.37
2019-03-12T13:55:02.846Z,37.4
2019-03-12T13:56:02.331Z,37.42
2019-03-12T13:57:00.933Z,37.48
2019-03-12T13:58:00.777Z,37.57
2019-03-12T13:59:00.887Z,37.59
2019-03-12T14:00:01.583Z,37.56
2019-03-12T14:01:00.825Z,37.63
2019-03-12T14:02:00.912Z,37.63
2019-03-12T14:03:00.998Z,37.62
2019-03-12T14:04:10.999Z,37.61
2019-03-12T14:05:00.765Z,37.68
2019-03-12T14:06:00.999Z,37.7
2019-03-12T14:07:00.839Z,37.68
2019-03-12T14:08:00.905Z,37.7
2019-03-12T14:09:00.887Z,37.73
2019-03-12T14:10:00.845Z,37.73
2019-03-12T14:11:00.866Z,37.7
2019-03-12T14:12:01.050Z,37.74
2019-03-12T14:13:00.778Z,37.73
2019-03-12T14:14:00.916Z,37.79
2019-03-12T14:15:00.949Z,37.76
2019-03-12T14:16:00.857Z,37.77
2019-03-12T14:17:00.875Z,37.81
2019-03-12T14:18:00.903Z,37.81
2019-03-12T14:19:00.901Z,37.77
2019-03-12T14:20:00.728Z,37.78
2019-03-12T14:21:00.853Z,37.81
2019-03-12T14:22:01.227Z,37.8
2019-03-12T14:23:00.894Z,37.8
2019-03-12T14:24:00.886Z,37.83
2019-03-12T14:25:00.861Z,37.83
2019-03-12T14:26:00.874Z,37.86
2019-03-12T14:27:00.795Z,37.83
2019-03-12T14:28:00.942Z,37.84
2019-03-12T14:29:01.100Z,37.85
2019-03-12T14:30:00.787Z,37.83
2019-03-12T14:31:00.897Z,37.86
2019-03-12T14:32:00.956Z,37.85
2019-03-12T14:33:00.776Z,37.83
2019-03-12T14:34:00.795Z,37.86
2019-03-12T14:35:00.673Z,37.86
2019-03-12T14:36:00.710Z,37.86
2019-03-12T14:37:00.915Z,37.85
2019-03-12T14:38:00.809Z,37.88
2019-03-12T14:39:00.816Z,37.87
2019-03-12T14:40:00.829Z,37.88
2019-03-12T14:41:00.863Z,37.84
2019-03-12T14:42:00.801Z,37.85
2019-03-12T14:43:00.836Z,37.86
2019-03-12T14:44:01.071Z,37.82
2019-03-12T14:45:00.935Z,37.88
2019-03-12T14:46:01.009Z,37.91
2019-03-12T14:47:00.690Z,37.88
2019-03-12T14:48:00.900Z,37.85
2019-03-12T14:49:00.716Z,37.94
2019-03-12T14:50:00.724Z,37.96
2019-03-12T14:51:00.876Z,37.92
2019-03-12T14:52:00.691Z,37.89
2019-03-12T14:53:00.781Z,37.89
2019-03-12T14:54:00.907Z,37.9
2019-03-12T14:55:00.728Z,37.92
2019-03-12T14:56:00.737Z,37.94
2019-03-12T14:57:00.938Z,37.91
2019-03-12T14:58:00.748Z,37.89
2019-03-12T14:59:00.739Z,37.91
2019-03-12T15:00:00.947Z,37.92
2019-03-12T15:01:00.742Z,37.93
2019-03-12T15:02:00.937Z,37.92
2019-03-12T15:03:00.924Z,37.92
2019-03-12T15:04:00.775Z,37.92
2019-03-12T15:05:00.770Z,37.95
2019-03-12T15:06:00.879Z,37.94
2019-03-12T15:07:00.787Z,37.95
2019-03-12T15:08:00.787Z,37.96
2019-03-12T15:09:00.697Z,37.92